sensor_id;sensor_type;location;lat;lon;timestamp;temperature;humidity
32660;DHT22;19064;47.912;12.308;2024-02-23T00:02:12;8.10;99.90
32660;DHT22;19064;47.912;12.308;2024-02-23T00:04:39;8.10;99.90
32660;DHT22;19064;47.912;12.308;2024-02-23T00:07:05;8.30;99.90
32660;DHT22;19064;47.912;12.308;2024-02-23T00:09:32;8.30;99.90
32660;DHT22;19064;47.912;12.308;2024-02-23T00:11:59;8.20;99.90
32660;DHT22;19064;47.912;12.308;2024-02-23T00:14:26;8.00;99.90
32660;DHT22;19064;47.912;12.308;2024-02-23T00:16:54;7.60;99.90
32660;DHT22;19064;47.912;12.308;2024-02-23T00:19:22;7.30;99.90
32660;DHT22;19064;47.912;12.308;2024-02-23T00:21:49;7.20;99.90
32660;DHT22;19064;47.912;12.308;2024-02-23T00:24:18;7.10;99.90
32660;DHT22;19064;47.912;12.308;2024-02-23T00:26:46;7.00;99.90
32660;DHT22;19064;47.912;12.308;2024-02-23T00:29:12;6.90;99.90
32660;DHT22;19064;47.912;12.308;2024-02-23T00:31:39;6.90;99.90
32660;DHT22;19064;47.912;12.308;2024-02-23T00:34:08;6.90;99.90
32660;DHT22;19064;47.912;12.308;2024-02-23T00:36:36;6.90;99.90
32660;DHT22;19064;47.912;12.308;2024-02-23T00:39:03;6.90;99.90
32660;DHT22;19064;47.912;12.308;2024-02-23T00:41:30;6.90;99.90
32660;DHT22;19064;47.912;12.308;2024-02-23T00:43:56;6.90;99.90
32660;DHT22;19064;47.912;12.308;2024-02-23T00:46:23;6.90;99.90
32660;DHT22;19064;47.912;12.308;2024-02-23T00:48:50;6.90;99.90
32660;DHT22;19064;47.912;12.308;2024-02-23T00:51:18;7.00;99.90
32660;DHT22;19064;47.912;12.308;2024-02-23T00:53:45;7.00;99.90
32660;DHT22;19064;47.912;12.308;2024-02-23T00:56:12;7.00;99.90
32660;DHT22;19064;47.912;12.308;2024-02-23T00:58:39;6.90;99.90
32660;DHT22;19064;47.912;12.308;2024-02-23T01:01:05;6.90;99.90
32660;DHT22;19064;47.912;12.308;2024-02-23T01:03:32;6.90;99.90
32660;DHT22;19064;47.912;12.308;2024-02-23T01:05:59;6.90;99.90
32660;DHT22;19064;47.912;12.308;2024-02-23T01:08:27;6.90;99.90
32660;DHT22;19064;47.912;12.308;2024-02-23T01:10:58;6.90;99.90
32660;DHT22;19064;47.912;12.308;2024-02-23T01:13:28;6.90;99.90
32660;DHT22;19064;47.912;12.308;2024-02-23T01:15:56;6.90;99.90
32660;DHT22;19064;47.912;12.308;2024-02-23T01:18:23;6.90;99.90
32660;DHT22;19064;47.912;12.308;2024-02-23T01:20:49;6.90;99.90
32660;DHT22;19064;47.912;12.308;2024-02-23T01:23:16;6.90;99.90
32660;DHT22;19064;47.912;12.308;2024-02-23T01:25:44;6.80;99.90
32660;DHT22;19064;47.912;12.308;2024-02-23T01:28:11;6.80;99.90
32660;DHT22;19064;47.912;12.308;2024-02-23T01:30:38;6.80;99.90
32660;DHT22;19064;47.912;12.308;2024-02-23T01:33:04;6.80;99.90
32660;DHT22;19064;47.912;12.308;2024-02-23T01:35:30;6.80;99.90
32660;DHT22;19064;47.912;12.308;2024-02-23T01:37:57;6.80;99.90
32660;DHT22;19064;47.912;12.308;2024-02-23T01:40:24;6.70;99.90
32660;DHT22;19064;47.912;12.308;2024-02-23T01:43:02;6.80;99.90
32660;DHT22;19064;47.912;12.308;2024-02-23T01:45:29;6.70;99.90
32660;DHT22;19064;47.912;12.308;2024-02-23T01:47:56;6.80;99.90
32660;DHT22;19064;47.912;12.308;2024-02-23T01:50:23;6.80;99.90
32660;DHT22;19064;47.912;12.308;2024-02-23T01:52:50;6.80;99.90
32660;DHT22;19064;47.912;12.308;2024-02-23T01:55:19;6.80;99.90
32660;DHT22;19064;47.912;12.308;2024-02-23T01:57:47;6.80;99.90
32660;DHT22;19064;47.912;12.308;2024-02-23T02:00:17;6.80;99.90
32660;DHT22;19064;47.912;12.308;2024-02-23T02:02:44;6.80;99.90
32660;DHT22;19064;47.912;12.308;2024-02-23T02:05:12;6.80;99.90
32660;DHT22;19064;47.912;12.308;2024-02-23T02:07:40;6.70;99.90
32660;DHT22;19064;47.912;12.308;2024-02-23T02:10:09;6.70;99.90
32660;DHT22;19064;47.912;12.308;2024-02-23T02:12:36;6.70;99.90
32660;DHT22;19064;47.912;12.308;2024-02-23T02:15:04;6.70;99.90
32660;DHT22;19064;47.912;12.308;2024-02-23T02:17:32;6.70;99.90
32660;DHT22;19064;47.912;12.308;2024-02-23T02:20:02;6.70;99.90
32660;DHT22;19064;47.912;12.308;2024-02-23T02:22:31;6.70;99.90
32660;DHT22;19064;47.912;12.308;2024-02-23T02:24:58;6.60;99.90
32660;DHT22;19064;47.912;12.308;2024-02-23T02:27:24;6.60;99.90
32660;DHT22;19064;47.912;12.308;2024-02-23T02:29:52;6.60;99.90
32660;DHT22;19064;47.912;12.308;2024-02-23T02:32:19;6.60;99.90
32660;DHT22;19064;47.912;12.308;2024-02-23T02:34:47;6.60;99.90
32660;DHT22;19064;47.912;12.308;2024-02-23T02:37:14;6.60;99.90
32660;DHT22;19064;47.912;12.308;2024-02-23T02:39:41;6.60;99.90
32660;DHT22;19064;47.912;12.308;2024-02-23T02:42:08;6.60;99.90
32660;DHT22;19064;47.912;12.308;2024-02-23T02:44:34;6.60;99.90
32660;DHT22;19064;47.912;12.308;2024-02-23T02:47:01;6.70;99.90
32660;DHT22;19064;47.912;12.308;2024-02-23T02:49:28;6.60;99.90
32660;DHT22;19064;47.912;12.308;2024-02-23T02:51:56;6.60;99.90
32660;DHT22;19064;47.912;12.308;2024-02-23T02:54:23;6.60;99.90
32660;DHT22;19064;47.912;12.308;2024-02-23T02:56:49;6.60;99.90
32660;DHT22;19064;47.912;12.308;2024-02-23T02:59:19;6.60;99.90
32660;DHT22;19064;47.912;12.308;2024-02-23T03:01:46;6.60;99.90
32660;DHT22;19064;47.912;12.308;2024-02-23T03:04:13;6.60;99.90
32660;DHT22;19064;47.912;12.308;2024-02-23T03:06:40;6.60;99.90
32660;DHT22;19064;47.912;12.308;2024-02-23T03:09:08;6.60;99.90
32660;DHT22;19064;47.912;12.308;2024-02-23T03:11:36;6.60;99.90
32660;DHT22;19064;47.912;12.308;2024-02-23T03:14:02;6.60;99.90
32660;DHT22;19064;47.912;12.308;2024-02-23T03:16:29;6.60;99.90
32660;DHT22;19064;47.912;12.308;2024-02-23T03:18:56;6.60;99.90
32660;DHT22;19064;47.912;12.308;2024-02-23T03:21:23;6.60;99.90
32660;DHT22;19064;47.912;12.308;2024-02-23T03:23:50;6.60;99.90
32660;DHT22;19064;47.912;12.308;2024-02-23T03:26:18;6.60;99.90
32660;DHT22;19064;47.912;12.308;2024-02-23T03:28:44;6.60;99.90
32660;DHT22;19064;47.912;12.308;2024-02-23T03:31:11;6.60;99.90
32660;DHT22;19064;47.912;12.308;2024-02-23T03:33:37;6.60;99.90
32660;DHT22;19064;47.912;12.308;2024-02-23T03:36:04;6.60;99.90
32660;DHT22;19064;47.912;12.308;2024-02-23T03:38:31;6.60;99.90
32660;DHT22;19064;47.912;12.308;2024-02-23T03:40:59;6.60;99.90
32660;DHT22;19064;47.912;12.308;2024-02-23T03:43:27;6.60;99.90
32660;DHT22;19064;47.912;12.308;2024-02-23T03:45:54;6.60;99.90
32660;DHT22;19064;47.912;12.308;2024-02-23T03:48:21;6.60;99.90
32660;DHT22;19064;47.912;12.308;2024-02-23T03:50:48;6.60;99.90
32660;DHT22;19064;47.912;12.308;2024-02-23T03:53:14;6.60;99.90
32660;DHT22;19064;47.912;12.308;2024-02-23T03:55:41;6.60;99.90
32660;DHT22;19064;47.912;12.308;2024-02-23T03:58:08;6.70;99.90
32660;DHT22;19064;47.912;12.308;2024-02-23T04:00:36;6.60;99.90
32660;DHT22;19064;47.912;12.308;2024-02-23T04:03:03;6.60;99.90
32660;DHT22;19064;47.912;12.308;2024-02-23T04:05:30;6.70;99.90
32660;DHT22;19064;47.912;12.308;2024-02-23T04:07:57;6.70;99.90
32660;DHT22;19064;47.912;12.308;2024-02-23T04:10:24;6.70;99.90
32660;DHT22;19064;47.912;12.308;2024-02-23T04:12:50;6.60;99.90
32660;DHT22;19064;47.912;12.308;2024-02-23T04:15:17;6.60;99.90
32660;DHT22;19064;47.912;12.308;2024-02-23T04:17:46;6.60;99.90
32660;DHT22;19064;47.912;12.308;2024-02-23T04:20:12;6.60;99.90
32660;DHT22;19064;47.912;12.308;2024-02-23T04:22:39;6.60;99.90
32660;DHT22;19064;47.912;12.308;2024-02-23T04:25:07;6.60;99.90
32660;DHT22;19064;47.912;12.308;2024-02-23T04:27:34;6.60;99.90
32660;DHT22;19064;47.912;12.308;2024-02-23T04:30:00;6.60;99.90
32660;DHT22;19064;47.912;12.308;2024-02-23T04:32:28;6.60;99.90
32660;DHT22;19064;47.912;12.308;2024-02-23T04:34:56;6.60;99.90
32660;DHT22;19064;47.912;12.308;2024-02-23T04:37:22;6.60;99.90
32660;DHT22;19064;47.912;12.308;2024-02-23T04:39:49;6.60;99.90
32660;DHT22;19064;47.912;12.308;2024-02-23T04:42:17;6.50;99.90
32660;DHT22;19064;47.912;12.308;2024-02-23T04:44:44;6.50;99.90
32660;DHT22;19064;47.912;12.308;2024-02-23T04:47:12;6.50;99.90
32660;DHT22;19064;47.912;12.308;2024-02-23T04:49:39;6.50;99.90
32660;DHT22;19064;47.912;12.308;2024-02-23T04:52:09;6.50;99.90
32660;DHT22;19064;47.912;12.308;2024-02-23T04:54:36;6.50;99.90
32660;DHT22;19064;47.912;12.308;2024-02-23T04:57:04;6.50;99.90
32660;DHT22;19064;47.912;12.308;2024-02-23T04:59:32;6.50;99.90
32660;DHT22;19064;47.912;12.308;2024-02-23T05:02:01;6.40;99.90
32660;DHT22;19064;47.912;12.308;2024-02-23T05:04:29;6.40;99.90
32660;DHT22;19064;47.912;12.308;2024-02-23T05:06:57;6.30;99.90
32660;DHT22;19064;47.912;12.308;2024-02-23T05:09:26;6.30;99.90
32660;DHT22;19064;47.912;12.308;2024-02-23T05:11:54;6.30;99.90
32660;DHT22;19064;47.912;12.308;2024-02-23T05:14:20;6.20;99.90
32660;DHT22;19064;47.912;12.308;2024-02-23T05:16:49;6.20;99.90
32660;DHT22;19064;47.912;12.308;2024-02-23T05:19:16;6.30;99.90
32660;DHT22;19064;47.912;12.308;2024-02-23T05:21:45;6.30;99.90
32660;DHT22;19064;47.912;12.308;2024-02-23T05:24:13;6.20;99.90
32660;DHT22;19064;47.912;12.308;2024-02-23T05:26:42;6.20;99.90
32660;DHT22;19064;47.912;12.308;2024-02-23T05:29:10;6.10;99.90
32660;DHT22;19064;47.912;12.308;2024-02-23T05:31:48;6.10;99.90
32660;DHT22;19064;47.912;12.308;2024-02-23T05:34:17;6.00;99.90
32660;DHT22;19064;47.912;12.308;2024-02-23T05:36:45;5.90;99.90
32660;DHT22;19064;47.912;12.308;2024-02-23T05:39:12;5.90;99.90
32660;DHT22;19064;47.912;12.308;2024-02-23T05:41:42;5.80;99.90
32660;DHT22;19064;47.912;12.308;2024-02-23T05:44:09;5.80;99.90
32660;DHT22;19064;47.912;12.308;2024-02-23T05:46:36;5.80;99.90
32660;DHT22;19064;47.912;12.308;2024-02-23T05:49:03;5.80;99.90
32660;DHT22;19064;47.912;12.308;2024-02-23T05:51:30;5.90;99.90
32660;DHT22;19064;47.912;12.308;2024-02-23T05:53:57;5.80;99.90
32660;DHT22;19064;47.912;12.308;2024-02-23T05:56:24;5.80;99.90
32660;DHT22;19064;47.912;12.308;2024-02-23T05:58:52;5.80;99.90
32660;DHT22;19064;47.912;12.308;2024-02-23T06:01:19;5.80;99.90
32660;DHT22;19064;47.912;12.308;2024-02-23T06:03:46;5.80;99.90
32660;DHT22;19064;47.912;12.308;2024-02-23T06:06:13;5.80;99.90
32660;DHT22;19064;47.912;12.308;2024-02-23T06:08:40;5.70;99.90
32660;DHT22;19064;47.912;12.308;2024-02-23T06:11:09;5.60;99.90
32660;DHT22;19064;47.912;12.308;2024-02-23T06:13:36;5.60;99.90
32660;DHT22;19064;47.912;12.308;2024-02-23T06:16:04;5.60;99.90
32660;DHT22;19064;47.912;12.308;2024-02-23T06:18:31;5.50;99.90
32660;DHT22;19064;47.912;12.308;2024-02-23T06:20:58;5.60;99.90
32660;DHT22;19064;47.912;12.308;2024-02-23T06:23:24;5.60;99.90
32660;DHT22;19064;47.912;12.308;2024-02-23T06:25:51;5.60;99.90
32660;DHT22;19064;47.912;12.308;2024-02-23T06:28:18;5.50;99.90
32660;DHT22;19064;47.912;12.308;2024-02-23T06:30:45;5.40;99.90
32660;DHT22;19064;47.912;12.308;2024-02-23T06:33:13;5.30;99.90
32660;DHT22;19064;47.912;12.308;2024-02-23T06:35:39;5.20;99.90
32660;DHT22;19064;47.912;12.308;2024-02-23T06:38:06;5.00;99.90
32660;DHT22;19064;47.912;12.308;2024-02-23T06:40:33;5.00;99.90
32660;DHT22;19064;47.912;12.308;2024-02-23T06:42:59;4.90;99.90
32660;DHT22;19064;47.912;12.308;2024-02-23T06:45:26;4.90;99.90
32660;DHT22;19064;47.912;12.308;2024-02-23T06:47:53;4.90;99.90
32660;DHT22;19064;47.912;12.308;2024-02-23T06:50:21;4.80;99.90
32660;DHT22;19064;47.912;12.308;2024-02-23T06:52:48;4.90;99.90
32660;DHT22;19064;47.912;12.308;2024-02-23T06:55:15;4.80;99.90
32660;DHT22;19064;47.912;12.308;2024-02-23T06:57:42;4.80;99.90
32660;DHT22;19064;47.912;12.308;2024-02-23T07:00:09;4.90;99.90
32660;DHT22;19064;47.912;12.308;2024-02-23T07:02:37;4.90;99.90
32660;DHT22;19064;47.912;12.308;2024-02-23T07:05:04;4.90;99.90
32660;DHT22;19064;47.912;12.308;2024-02-23T07:07:32;4.90;99.90
32660;DHT22;19064;47.912;12.308;2024-02-23T07:09:59;5.00;99.90
32660;DHT22;19064;47.912;12.308;2024-02-23T07:12:26;5.00;99.90
32660;DHT22;19064;47.912;12.308;2024-02-23T07:14:54;4.90;99.90
32660;DHT22;19064;47.912;12.308;2024-02-23T07:17:21;4.90;99.90
32660;DHT22;19064;47.912;12.308;2024-02-23T07:19:48;4.90;99.90
32660;DHT22;19064;47.912;12.308;2024-02-23T07:22:16;4.90;99.90
32660;DHT22;19064;47.912;12.308;2024-02-23T07:24:44;4.90;99.90
32660;DHT22;19064;47.912;12.308;2024-02-23T07:27:11;4.90;99.90
32660;DHT22;19064;47.912;12.308;2024-02-23T07:29:38;4.90;99.90
32660;DHT22;19064;47.912;12.308;2024-02-23T07:32:05;4.90;99.90
32660;DHT22;19064;47.912;12.308;2024-02-23T07:34:32;4.90;99.90
32660;DHT22;19064;47.912;12.308;2024-02-23T07:36:59;4.90;99.90
32660;DHT22;19064;47.912;12.308;2024-02-23T07:39:25;4.80;99.90
32660;DHT22;19064;47.912;12.308;2024-02-23T07:41:54;4.80;99.90
32660;DHT22;19064;47.912;12.308;2024-02-23T07:44:20;4.80;99.90
32660;DHT22;19064;47.912;12.308;2024-02-23T07:46:47;4.80;99.90
32660;DHT22;19064;47.912;12.308;2024-02-23T07:49:14;4.60;99.90
32660;DHT22;19064;47.912;12.308;2024-02-23T07:51:40;4.50;99.90
32660;DHT22;19064;47.912;12.308;2024-02-23T07:54:07;4.40;99.90
32660;DHT22;19064;47.912;12.308;2024-02-23T07:56:34;4.30;99.90
32660;DHT22;19064;47.912;12.308;2024-02-23T07:59:02;4.40;99.90
32660;DHT22;19064;47.912;12.308;2024-02-23T08:01:29;4.40;99.90
32660;DHT22;19064;47.912;12.308;2024-02-23T08:03:56;4.30;99.90
32660;DHT22;19064;47.912;12.308;2024-02-23T08:06:23;4.30;99.90
32660;DHT22;19064;47.912;12.308;2024-02-23T08:08:51;4.30;99.90
32660;DHT22;19064;47.912;12.308;2024-02-23T08:11:19;4.20;99.90
32660;DHT22;19064;47.912;12.308;2024-02-23T08:13:45;4.10;99.90
32660;DHT22;19064;47.912;12.308;2024-02-23T08:16:15;4.20;99.90
32660;DHT22;19064;47.912;12.308;2024-02-23T08:18:42;4.10;99.90
32660;DHT22;19064;47.912;12.308;2024-02-23T08:21:10;4.10;99.90
32660;DHT22;19064;47.912;12.308;2024-02-23T08:23:36;4.10;99.90
32660;DHT22;19064;47.912;12.308;2024-02-23T08:26:03;4.00;99.90
32660;DHT22;19064;47.912;12.308;2024-02-23T08:28:30;4.20;99.90
32660;DHT22;19064;47.912;12.308;2024-02-23T08:30:57;4.50;99.90
32660;DHT22;19064;47.912;12.308;2024-02-23T08:33:26;4.50;99.90
32660;DHT22;19064;47.912;12.308;2024-02-23T08:35:52;4.50;99.90
32660;DHT22;19064;47.912;12.308;2024-02-23T08:38:20;4.40;99.90
32660;DHT22;19064;47.912;12.308;2024-02-23T08:40:47;4.50;99.90
32660;DHT22;19064;47.912;12.308;2024-02-23T08:43:14;4.50;99.90
32660;DHT22;19064;47.912;12.308;2024-02-23T08:45:41;4.50;99.90
32660;DHT22;19064;47.912;12.308;2024-02-23T08:48:08;4.60;99.90
32660;DHT22;19064;47.912;12.308;2024-02-23T08:50:36;4.40;99.90
32660;DHT22;19064;47.912;12.308;2024-02-23T08:53:04;4.40;99.90
32660;DHT22;19064;47.912;12.308;2024-02-23T08:55:30;4.50;99.90
32660;DHT22;19064;47.912;12.308;2024-02-23T08:57:58;4.60;99.90
32660;DHT22;19064;47.912;12.308;2024-02-23T09:00:24;4.40;99.90
32660;DHT22;19064;47.912;12.308;2024-02-23T09:02:51;4.40;99.90
32660;DHT22;19064;47.912;12.308;2024-02-23T09:05:17;4.60;99.90
32660;DHT22;19064;47.912;12.308;2024-02-23T09:07:46;4.60;99.90
32660;DHT22;19064;47.912;12.308;2024-02-23T09:10:13;4.60;99.90
32660;DHT22;19064;47.912;12.308;2024-02-23T09:12:39;4.70;99.90
32660;DHT22;19064;47.912;12.308;2024-02-23T09:15:07;4.70;99.90
32660;DHT22;19064;47.912;12.308;2024-02-23T09:17:34;4.50;99.90
32660;DHT22;19064;47.912;12.308;2024-02-23T09:20:00;4.50;99.90
32660;DHT22;19064;47.912;12.308;2024-02-23T09:22:27;4.40;99.90
32660;DHT22;19064;47.912;12.308;2024-02-23T09:24:55;4.30;99.90
32660;DHT22;19064;47.912;12.308;2024-02-23T09:27:22;4.50;99.90
32660;DHT22;19064;47.912;12.308;2024-02-23T09:29:49;4.40;99.90
32660;DHT22;19064;47.912;12.308;2024-02-23T09:32:16;4.50;99.90
32660;DHT22;19064;47.912;12.308;2024-02-23T09:34:43;4.40;99.90
32660;DHT22;19064;47.912;12.308;2024-02-23T09:37:09;4.40;99.90
32660;DHT22;19064;47.912;12.308;2024-02-23T09:39:37;4.50;99.90
32660;DHT22;19064;47.912;12.308;2024-02-23T09:42:10;4.60;99.90
32660;DHT22;19064;47.912;12.308;2024-02-23T09:44:41;4.50;99.90
32660;DHT22;19064;47.912;12.308;2024-02-23T09:47:12;4.40;99.90
32660;DHT22;19064;47.912;12.308;2024-02-23T09:49:40;4.30;99.90
32660;DHT22;19064;47.912;12.308;2024-02-23T09:52:09;4.40;99.90
32660;DHT22;19064;47.912;12.308;2024-02-23T09:54:37;4.40;99.90
32660;DHT22;19064;47.912;12.308;2024-02-23T09:57:18;4.40;99.90
32660;DHT22;19064;47.912;12.308;2024-02-23T09:59:48;4.30;99.90
32660;DHT22;19064;47.912;12.308;2024-02-23T10:02:15;4.40;99.90
32660;DHT22;19064;47.912;12.308;2024-02-23T10:04:43;4.50;99.90
32660;DHT22;19064;47.912;12.308;2024-02-23T10:07:09;4.50;99.90
32660;DHT22;19064;47.912;12.308;2024-02-23T10:09:36;4.30;99.90
32660;DHT22;19064;47.912;12.308;2024-02-23T10:12:03;4.20;99.90
32660;DHT22;19064;47.912;12.308;2024-02-23T10:14:31;4.30;99.90
32660;DHT22;19064;47.912;12.308;2024-02-23T10:16:58;4.30;99.90
32660;DHT22;19064;47.912;12.308;2024-02-23T10:19:28;4.10;99.90
32660;DHT22;19064;47.912;12.308;2024-02-23T10:21:59;4.30;99.90
32660;DHT22;19064;47.912;12.308;2024-02-23T10:24:27;4.40;99.90
32660;DHT22;19064;47.912;12.308;2024-02-23T10:26:55;4.60;99.90
32660;DHT22;19064;47.912;12.308;2024-02-23T10:29:23;4.70;99.90
32660;DHT22;19064;47.912;12.308;2024-02-23T10:31:57;4.60;99.90
32660;DHT22;19064;47.912;12.308;2024-02-23T10:34:27;4.60;99.90
32660;DHT22;19064;47.912;12.308;2024-02-23T10:36:57;4.60;99.90
32660;DHT22;19064;47.912;12.308;2024-02-23T10:39:27;4.60;99.90
32660;DHT22;19064;47.912;12.308;2024-02-23T10:41:57;4.60;99.90
32660;DHT22;19064;47.912;12.308;2024-02-23T10:44:28;4.50;99.90
32660;DHT22;19064;47.912;12.308;2024-02-23T10:47:00;4.60;99.90
32660;DHT22;19064;47.912;12.308;2024-02-23T10:49:29;4.60;99.90
32660;DHT22;19064;47.912;12.308;2024-02-23T10:51:58;4.70;99.90
32660;DHT22;19064;47.912;12.308;2024-02-23T10:54:27;4.60;99.90
32660;DHT22;19064;47.912;12.308;2024-02-23T10:56:55;4.60;99.90
32660;DHT22;19064;47.912;12.308;2024-02-23T10:59:23;4.50;99.90
32660;DHT22;19064;47.912;12.308;2024-02-23T11:01:53;4.40;99.90
32660;DHT22;19064;47.912;12.308;2024-02-23T11:04:25;4.40;99.90
32660;DHT22;19064;47.912;12.308;2024-02-23T11:06:55;4.20;99.90
32660;DHT22;19064;47.912;12.308;2024-02-23T11:09:25;4.00;99.90
32660;DHT22;19064;47.912;12.308;2024-02-23T11:11:57;3.90;99.90
32660;DHT22;19064;47.912;12.308;2024-02-23T11:14:31;3.90;99.90
32660;DHT22;19064;47.912;12.308;2024-02-23T11:17:00;3.80;99.90
32660;DHT22;19064;47.912;12.308;2024-02-23T11:19:36;3.80;99.90
32660;DHT22;19064;47.912;12.308;2024-02-23T11:22:09;3.80;99.90
32660;DHT22;19064;47.912;12.308;2024-02-23T11:24:42;3.70;99.90
32660;DHT22;19064;47.912;12.308;2024-02-23T11:27:15;3.60;99.90
32660;DHT22;19064;47.912;12.308;2024-02-23T11:29:45;3.60;99.90
32660;DHT22;19064;47.912;12.308;2024-02-23T11:32:14;3.60;99.90
32660;DHT22;19064;47.912;12.308;2024-02-23T11:34:54;3.70;99.90
32660;DHT22;19064;47.912;12.308;2024-02-23T11:37:22;3.70;99.90
32660;DHT22;19064;47.912;12.308;2024-02-23T11:39:50;3.60;99.90
32660;DHT22;19064;47.912;12.308;2024-02-23T11:42:21;3.40;99.90
32660;DHT22;19064;47.912;12.308;2024-02-23T11:44:52;3.30;99.90
32660;DHT22;19064;47.912;12.308;2024-02-23T11:47:21;3.20;99.90
32660;DHT22;19064;47.912;12.308;2024-02-23T11:49:50;3.20;99.90
32660;DHT22;19064;47.912;12.308;2024-02-23T11:52:18;3.10;99.90
32660;DHT22;19064;47.912;12.308;2024-02-23T11:54:47;3.00;99.90
32660;DHT22;19064;47.912;12.308;2024-02-23T11:57:14;3.10;99.90
32660;DHT22;19064;47.912;12.308;2024-02-23T11:59:43;3.20;99.90
32660;DHT22;19064;47.912;12.308;2024-02-23T12:02:12;3.20;99.90
32660;DHT22;19064;47.912;12.308;2024-02-23T12:04:40;3.30;99.90
32660;DHT22;19064;47.912;12.308;2024-02-23T12:07:10;3.30;99.90
32660;DHT22;19064;47.912;12.308;2024-02-23T12:09:36;3.30;99.90
32660;DHT22;19064;47.912;12.308;2024-02-23T12:12:08;3.20;99.90
32660;DHT22;19064;47.912;12.308;2024-02-23T12:14:39;3.20;99.90
32660;DHT22;19064;47.912;12.308;2024-02-23T12:17:08;3.10;99.90
32660;DHT22;19064;47.912;12.308;2024-02-23T12:19:38;3.10;99.90
32660;DHT22;19064;47.912;12.308;2024-02-23T12:22:07;3.10;99.90
32660;DHT22;19064;47.912;12.308;2024-02-23T12:24:36;3.20;99.90
32660;DHT22;19064;47.912;12.308;2024-02-23T12:27:04;3.20;99.90
32660;DHT22;19064;47.912;12.308;2024-02-23T12:29:32;3.20;99.90
32660;DHT22;19064;47.912;12.308;2024-02-23T12:32:04;3.20;99.90
32660;DHT22;19064;47.912;12.308;2024-02-23T12:34:33;3.20;99.90
32660;DHT22;19064;47.912;12.308;2024-02-23T12:37:02;3.20;99.90
32660;DHT22;19064;47.912;12.308;2024-02-23T12:39:31;3.30;99.90
32660;DHT22;19064;47.912;12.308;2024-02-23T12:42:01;3.20;99.90
32660;DHT22;19064;47.912;12.308;2024-02-23T12:44:29;3.30;99.90
32660;DHT22;19064;47.912;12.308;2024-02-23T12:46:57;3.30;99.90
32660;DHT22;19064;47.912;12.308;2024-02-23T12:49:25;3.30;99.90
32660;DHT22;19064;47.912;12.308;2024-02-23T12:51:53;3.30;99.90
32660;DHT22;19064;47.912;12.308;2024-02-23T12:54:21;3.40;99.90
32660;DHT22;19064;47.912;12.308;2024-02-23T12:56:49;3.30;99.90
32660;DHT22;19064;47.912;12.308;2024-02-23T12:59:19;3.40;99.90
32660;DHT22;19064;47.912;12.308;2024-02-23T13:01:47;3.40;99.90
32660;DHT22;19064;47.912;12.308;2024-02-23T13:04:15;3.60;99.90
32660;DHT22;19064;47.912;12.308;2024-02-23T13:06:43;3.60;99.90
32660;DHT22;19064;47.912;12.308;2024-02-23T13:09:11;3.70;99.90
32660;DHT22;19064;47.912;12.308;2024-02-23T13:11:41;3.60;99.90
32660;DHT22;19064;47.912;12.308;2024-02-23T13:14:09;3.40;99.90
32660;DHT22;19064;47.912;12.308;2024-02-23T13:16:39;3.60;99.90
32660;DHT22;19064;47.912;12.308;2024-02-23T13:19:07;3.60;99.90
32660;DHT22;19064;47.912;12.308;2024-02-23T13:21:37;3.40;99.90
32660;DHT22;19064;47.912;12.308;2024-02-23T13:24:05;3.40;99.90
32660;DHT22;19064;47.912;12.308;2024-02-23T13:26:34;3.50;99.90
32660;DHT22;19064;47.912;12.308;2024-02-23T13:29:01;3.40;99.90
32660;DHT22;19064;47.912;12.308;2024-02-23T13:31:30;3.40;99.90
32660;DHT22;19064;47.912;12.308;2024-02-23T13:33:58;3.30;99.90
32660;DHT22;19064;47.912;12.308;2024-02-23T13:36:26;3.40;99.90
32660;DHT22;19064;47.912;12.308;2024-02-23T13:38:52;3.30;99.90
32660;DHT22;19064;47.912;12.308;2024-02-23T13:41:19;3.20;99.90
32660;DHT22;19064;47.912;12.308;2024-02-23T13:43:46;3.20;99.90
32660;DHT22;19064;47.912;12.308;2024-02-23T13:46:13;3.30;99.90
32660;DHT22;19064;47.912;12.308;2024-02-23T13:48:39;3.20;99.90
32660;DHT22;19064;47.912;12.308;2024-02-23T13:51:08;3.20;99.90
32660;DHT22;19064;47.912;12.308;2024-02-23T13:53:35;3.30;99.90
32660;DHT22;19064;47.912;12.308;2024-02-23T13:56:03;3.20;99.90
32660;DHT22;19064;47.912;12.308;2024-02-23T13:58:30;3.20;99.90
32660;DHT22;19064;47.912;12.308;2024-02-23T14:00:57;3.10;99.90
32660;DHT22;19064;47.912;12.308;2024-02-23T14:03:24;3.10;99.90
32660;DHT22;19064;47.912;12.308;2024-02-23T14:05:51;3.10;99.90
32660;DHT22;19064;47.912;12.308;2024-02-23T14:08:19;2.90;99.90
32660;DHT22;19064;47.912;12.308;2024-02-23T14:10:46;2.90;99.90
32660;DHT22;19064;47.912;12.308;2024-02-23T14:13:14;3.00;99.90
32660;DHT22;19064;47.912;12.308;2024-02-23T14:15:42;2.90;99.90
32660;DHT22;19064;47.912;12.308;2024-02-23T14:18:08;3.00;99.90
32660;DHT22;19064;47.912;12.308;2024-02-23T14:20:36;2.80;99.90
32660;DHT22;19064;47.912;12.308;2024-02-23T14:23:03;2.90;99.90
32660;DHT22;19064;47.912;12.308;2024-02-23T14:25:31;2.90;99.90
32660;DHT22;19064;47.912;12.308;2024-02-23T14:27:58;2.90;99.90
32660;DHT22;19064;47.912;12.308;2024-02-23T14:30:25;2.90;99.90
32660;DHT22;19064;47.912;12.308;2024-02-23T14:32:52;3.00;99.90
32660;DHT22;19064;47.912;12.308;2024-02-23T14:35:19;2.90;99.90
32660;DHT22;19064;47.912;12.308;2024-02-23T14:37:46;2.90;99.90
32660;DHT22;19064;47.912;12.308;2024-02-23T14:40:13;2.80;99.90
32660;DHT22;19064;47.912;12.308;2024-02-23T14:42:42;2.70;99.90
32660;DHT22;19064;47.912;12.308;2024-02-23T14:45:09;2.70;99.90
32660;DHT22;19064;47.912;12.308;2024-02-23T14:47:38;2.70;99.90
32660;DHT22;19064;47.912;12.308;2024-02-23T14:50:06;2.70;99.90
32660;DHT22;19064;47.912;12.308;2024-02-23T14:52:34;2.80;99.90
32660;DHT22;19064;47.912;12.308;2024-02-23T14:55:01;2.80;99.90
32660;DHT22;19064;47.912;12.308;2024-02-23T14:57:29;2.70;99.90
32660;DHT22;19064;47.912;12.308;2024-02-23T14:59:57;2.70;99.90
32660;DHT22;19064;47.912;12.308;2024-02-23T15:02:24;2.70;99.90
32660;DHT22;19064;47.912;12.308;2024-02-23T15:04:51;2.70;99.90
32660;DHT22;19064;47.912;12.308;2024-02-23T15:07:18;2.80;99.90
32660;DHT22;19064;47.912;12.308;2024-02-23T15:09:44;2.80;99.90
32660;DHT22;19064;47.912;12.308;2024-02-23T15:12:11;2.70;99.90
32660;DHT22;19064;47.912;12.308;2024-02-23T15:14:39;2.60;99.90
32660;DHT22;19064;47.912;12.308;2024-02-23T15:17:07;2.70;99.90
32660;DHT22;19064;47.912;12.308;2024-02-23T15:19:34;2.70;99.90
32660;DHT22;19064;47.912;12.308;2024-02-23T15:22:01;2.90;99.90
32660;DHT22;19064;47.912;12.308;2024-02-23T15:24:28;2.80;99.90
32660;DHT22;19064;47.912;12.308;2024-02-23T15:26:54;2.60;99.90
32660;DHT22;19064;47.912;12.308;2024-02-23T15:29:21;2.70;99.90
32660;DHT22;19064;47.912;12.308;2024-02-23T15:31:48;2.80;99.90
32660;DHT22;19064;47.912;12.308;2024-02-23T15:34:18;2.80;99.90